Time;durP1;ratioP1;P1;durP2;ratioP2;P2;SDS_P1;SDS_P2;PMS_P1;PMS_P2;Temp;Humidity;BMP_temperature;BMP_pressure;BME280_temperature;BME280_humidity;BME280_pressure;Samples;Min_cycle;Max_cycle;Signal;HPM_P1;HPM_P2
2023/09/29 00:01:38;;;;;;;33.70;20.55;;;;;;;22.29;53.58;101620.47;4966900;28;20117;-40
2023/09/29 00:04:05;;;;;;;33.20;20.75;;;;;;;22.28;53.25;101616.91;4968235;28;20522;-40
2023/09/29 00:06:32;;;;;;;32.67;19.95;;;;;;;22.28;53.68;101619.63;4969453;28;20050;-40
2023/09/29 00:09:00;;;;;;;29.23;18.55;;;;;;;22.28;53.28;101618.78;4967083;28;20288;-40
2023/09/29 00:11:30;;;;;;;31.10;19.63;;;;;;;22.28;53.37;101616.06;4965864;28;20047;-37
2023/09/29 00:13:57;;;;;;;31.10;18.85;;;;;;;22.28;53.39;101619.63;4963889;28;20054;-40
2023/09/29 00:16:24;;;;;;;29.92;18.58;;;;;;;22.28;53.59;101610.66;4966962;28;20082;-38
2023/09/29 00:18:51;;;;;;;29.35;18.95;;;;;;;22.29;53.35;101606.94;4962717;28;20064;-39
2023/09/29 00:21:17;;;;;;;29.75;17.15;;;;;;;22.28;53.01;101599.88;4969704;28;20533;-39
2023/09/29 00:23:44;;;;;;;34.03;18.77;;;;;;;22.27;53.45;101593.63;4963153;28;20142;-40
2023/09/29 00:26:11;;;;;;;28.58;18.25;;;;;;;22.29;53.52;101577.25;4964442;28;20347;-40
2023/09/29 00:28:37;;;;;;;29.35;17.38;;;;;;;22.28;53.13;101573.72;4965567;28;20042;-38
2023/09/29 00:31:05;;;;;;;29.50;17.50;;;;;;;22.27;53.48;101565.75;4963672;28;20138;-40
2023/09/29 00:33:33;;;;;;;28.77;17.58;;;;;;;22.28;53.18;101554.81;4962622;28;20471;-40
2023/09/29 00:35:59;;;;;;;28.15;17.77;;;;;;;22.28;53.45;101559.38;4968721;28;20058;-40
2023/09/29 00:38:27;;;;;;;25.75;16.00;;;;;;;22.26;53.34;101551.41;4970409;28;20051;-40
2023/09/29 00:40:53;;;;;;;30.38;16.77;;;;;;;22.26;53.34;101559.50;4962804;28;20078;-39
2023/09/29 00:43:21;;;;;;;29.45;17.13;;;;;;;22.26;53.07;101555.97;4966774;28;20058;-39
2023/09/29 00:45:49;;;;;;;27.13;16.38;;;;;;;22.26;53.45;101551.41;4966490;28;20047;-40
2023/09/29 00:48:17;;;;;;;28.13;15.82;;;;;;;22.25;53.65;101552.41;4966802;28;20082;-40
2023/09/29 00:50:45;;;;;;;26.13;15.30;;;;;;;22.26;53.56;101554.09;4993860;28;20482;-39
2023/09/29 00:53:14;;;;;;;25.00;15.63;;;;;;;22.26;53.26;101553.25;4968078;28;20169;-38
2023/09/29 00:55:44;;;;;;;25.92;15.88;;;;;;;22.25;53.24;101557.81;4964982;28;20067;-40
2023/09/29 00:58:14;;;;;;;29.15;14.85;;;;;;;22.26;53.49;101555.97;4962218;28;20063;-40
2023/09/29 01:00:42;;;;;;;24.85;14.55;;;;;;;22.26;53.50;101547.84;4964618;28;20447;-40
2023/09/29 01:03:12;;;;;;;26.25;15.65;;;;;;;22.25;53.17;101543.47;4964272;28;20411;-40
2023/09/29 01:05:47;;;;;;;24.70;15.02;;;;;;;22.25;53.41;101547.03;4963347;28;20410;-41
2023/09/29 01:08:22;;;;;;;25.70;15.10;;;;;;;22.26;53.47;101545.16;4998248;28;20051;-40
2023/09/29 01:10:52;;;;;;;23.60;14.68;;;;;;;22.25;53.25;101552.41;4968778;28;20423;-40
2023/09/29 01:13:19;;;;;;;26.05;15.00;;;;;;;22.25;53.19;101546.19;4967595;28;20053;-39
2023/09/29 01:15:46;;;;;;;24.42;14.75;;;;;;;22.25;53.38;101543.47;4966486;28;20470;-41
2023/09/29 01:18:13;;;;;;;22.33;13.20;;;;;;;22.25;53.21;101536.22;4963651;28;20054;-40
2023/09/29 01:20:40;;;;;;;20.90;12.48;;;;;;;22.25;53.33;101538.91;4964672;28;20054;-41
2023/09/29 01:23:09;;;;;;;20.83;13.52;;;;;;;22.25;53.27;101538.91;4964884;28;20059;-38
2023/09/29 01:25:36;;;;;;;22.10;12.82;;;;;;;22.25;53.45;101529.97;4960993;28;20118;-41
2023/09/29 01:28:07;;;;;;;22.48;13.52;;;;;;;22.26;53.46;101532.50;4961655;28;20109;-41
2023/09/29 01:30:35;;;;;;;22.98;13.30;;;;;;;22.26;53.42;101526.25;4964981;28;20419;-40
2023/09/29 01:33:02;;;;;;;24.23;13.60;;;;;;;22.26;53.47;101528.97;4962255;28;20059;-40
2023/09/29 01:35:29;;;;;;;21.92;12.15;;;;;;;22.25;53.44;101524.56;4964213;28;20166;-41
2023/09/29 01:37:59;;;;;;;24.33;12.90;;;;;;;22.25;53.26;101517.31;4963553;28;20054;-41
2023/09/29 01:40:27;;;;;;;21.58;12.95;;;;;;;22.26;53.53;101520.84;4959841;28;20387;-40
2023/09/29 01:42:56;;;;;;;20.67;12.98;;;;;;;22.26;53.49;101516.28;4964847;28;20062;-40
2023/09/29 01:45:24;;;;;;;22.60;12.65;;;;;;;22.26;53.09;101502.78;4968802;28;20082;-40
2023/09/29 01:47:51;;;;;;;20.77;11.88;;;;;;;22.26;53.31;101510.06;4961099;28;20051;-40
2023/09/29 01:50:20;;;;;;;20.08;11.20;;;;;;;22.25;53.52;101505.66;4966137;28;20150;-38
2023/09/29 01:52:48;;;;;;;18.05;11.25;;;;;;;22.26;53.63;101510.06;4962606;28;20308;-38
2023/09/29 01:55:16;;;;;;;18.60;10.80;;;;;;;22.25;53.51;101506.50;4961843;28;20054;-40
2023/09/29 01:57:43;;;;;;;18.67;10.48;;;;;;;22.25;53.59;101505.66;4966170;28;20054;-41
2023/09/29 02:00:14;;;;;;;21.30;12.30;;;;;;;22.25;53.53;101502.97;4966240;28;20055;-40
2023/09/29 02:02:43;;;;;;;17.85;10.98;;;;;;;22.24;53.38;101495.88;4962694;28;20108;-40
2023/09/29 02:05:11;;;;;;;17.70;10.85;;;;;;;22.25;53.59;101492.16;4963108;28;20035;-40
2023/09/29 02:07:39;;;;;;;18.85;11.10;;;;;;;22.23;53.57;101497.75;4966460;28;20051;-41
2023/09/29 02:10:08;;;;;;;18.48;11.15;;;;;;;22.23;53.30;101499.56;4962652;28;20491;-38
2023/09/29 02:12:38;;;;;;;18.75;10.57;;;;;;;22.24;53.63;101498.59;4962134;28;20050;-39
2023/09/29 02:15:06;;;;;;;19.77;10.75;;;;;;;22.23;53.69;101489.66;4966858;28;20133;-40
2023/09/29 02:17:36;;;;;;;17.10;9.95;;;;;;;22.24;53.13;101495.88;4970039;28;20333;-41
2023/09/29 02:20:17;;;;;;;16.85;8.95;;;;;;;22.22;53.68;101487.94;4967047;28;20047;-40
2023/09/29 02:22:45;;;;;;;19.85;10.30;;;;;;;22.23;53.71;101475.28;4965143;28;20051;-40
2023/09/29 02:25:16;;;;;;;19.15;9.93;;;;;;;22.23;53.59;101476.16;4965025;28;20113;-40
2023/09/29 02:27:43;;;;;;;16.25;9.18;;;;;;;22.23;53.66;101477.97;4962414;28;20436;-40
2023/09/29 02:30:11;;;;;;;17.38;10.23;;;;;;;22.22;53.23;101469.03;4970248;28;20101;-40
2023/09/29 02:32:40;;;;;;;18.08;10.45;;;;;;;22.24;53.69;101463.47;4961435;28;20047;-40
2023/09/29 02:35:08;;;;;;;19.25;9.70;;;;;;;22.22;53.16;101460.94;4957494;28;20507;-37
2023/09/29 02:37:34;;;;;;;15.43;9.18;;;;;;;22.22;53.62;101457.38;4967391;28;20105;-41
2023/09/29 02:40:04;;;;;;;14.85;8.77;;;;;;;22.22;53.40;101450.13;4961724;28;20109;-38
2023/09/29 02:42:31;;;;;;;19.95;9.82;;;;;;;22.23;53.03;101450.97;4962285;28;20363;-40
2023/09/29 02:44:58;;;;;;;15.75;8.85;;;;;;;22.21;53.21;101453.84;4963297;28;20094;-41
2023/09/29 02:47:25;;;;;;;15.68;8.88;;;;;;;22.22;53.57;101449.28;4962225;28;20065;-38
2023/09/29 02:49:52;;;;;;;15.82;8.70;;;;;;;22.22;53.33;101444.72;4966588;28;20147;-38
2023/09/29 02:52:20;;;;;;;13.02;8.38;;;;;;;22.21;53.65;101448.44;4963056;28;20078;-41
2023/09/29 02:54:47;;;;;;;16.60;9.07;;;;;;;22.22;53.32;101431.22;4964202;28;20051;-41
2023/09/29 02:57:14;;;;;;;14.98;8.82;;;;;;;22.22;53.72;101439.31;4966998;28;20154;-40
2023/09/29 02:59:40;;;;;;;13.32;7.80;;;;;;;22.23;53.58;101432.06;4961462;28;20043;-40
2023/09/29 03:02:07;;;;;;;18.75;9.25;;;;;;;22.22;53.67;101427.69;4964255;28;20061;-40
2023/09/29 03:04:35;;;;;;;15.38;8.38;;;;;;;22.22;53.31;101433.09;4960415;28;20054;-39
2023/09/29 03:07:02;;;;;;;15.88;8.70;;;;;;;22.22;53.55;101423.13;4965165;28;20080;-39
2023/09/29 03:09:29;;;;;;;13.38;7.45;;;;;;;22.23;53.30;101423.97;4962598;28;20058;-38
2023/09/29 03:11:58;;;;;;;12.88;7.95;;;;;;;22.22;53.63;101433.94;4964140;28;20098;-40
2023/09/29 03:14:26;;;;;;;14.80;7.90;;;;;;;22.22;53.45;101442.03;4963721;28;20053;-39
2023/09/29 03:17:00;;;;;;;12.93;7.30;;;;;;;22.21;53.63;101451.16;4959193;28;20046;-40
2023/09/29 03:19:27;;;;;;;13.07;7.60;;;;;;;22.23;53.68;101456.38;4962591;28;20423;-40
2023/09/29 03:21:54;;;;;;;12.85;7.40;;;;;;;22.22;53.21;101449.28;4967058;28;20075;-40
2023/09/29 03:24:21;;;;;;;12.80;6.95;;;;;;;22.22;53.43;101443.88;4966841;28;20047;-39
2023/09/29 03:26:49;;;;;;;13.40;7.20;;;;;;;22.23;53.56;101432.06;4966102;28;20137;-40
2023/09/29 03:29:17;;;;;;;11.30;6.68;;;;;;;22.22;53.61;101433.09;4964961;28;20059;-40
2023/09/29 03:31:45;;;;;;;13.18;7.65;;;;;;;22.20;53.69;101422.47;4971782;28;20387;-39
2023/09/29 03:34:11;;;;;;;12.57;7.25;;;;;;;22.20;53.44;101430.56;4966714;28;20379;-41
2023/09/29 03:36:38;;;;;;;14.38;8.02;;;;;;;22.18;53.64;101414.50;4964064;28;20459;-38
2023/09/29 03:39:06;;;;;;;13.25;7.15;;;;;;;22.18;53.74;101411.81;4966586;28;20046;-40
2023/09/29 03:41:33;;;;;;;13.23;6.75;;;;;;;22.17;53.74;101406.59;4968214;28;20050;-40
2023/09/29 03:44:00;;;;;;;12.35;6.95;;;;;;;22.17;53.67;101395.78;4965531;28;20046;-38
2023/09/29 03:46:28;;;;;;;11.45;7.07;;;;;;;22.17;53.69;101399.31;4964666;28;20105;-40
2023/09/29 03:48:55;;;;;;;11.32;7.32;;;;;;;22.16;53.66;101392.25;4962711;28;20134;-40
2023/09/29 03:51:26;;;;;;;13.98;7.10;;;;;;;22.16;53.91;101386.84;4964601;28;20043;-40
2023/09/29 03:53:54;;;;;;;14.15;7.13;;;;;;;22.16;53.68;101383.31;4969998;28;20061;-40
2023/09/29 03:56:24;;;;;;;10.68;6.03;;;;;;;22.16;54.09;101370.66;4971123;28;20326;-37
2023/09/29 03:58:53;;;;;;;15.82;7.15;;;;;;;22.16;53.57;101367.94;4969425;28;20050;-40
2023/09/29 04:01:25;;;;;;;10.45;6.35;;;;;;;22.15;53.98;101374.38;4964578;28;20354;-39
2023/09/29 04:03:51;;;;;;;11.95;5.90;;;;;;;22.14;53.67;101364.56;4965117;28;20360;-39
2023/09/29 04:06:18;;;;;;;11.23;6.53;;;;;;;22.15;53.74;101365.41;4965769;28;20057;-39
2023/09/29 04:08:46;;;;;;;9.68;5.90;;;;;;;22.14;54.13;101364.56;4967377;28;20567;-40
2023/09/29 04:11:13;;;;;;;11.00;6.65;;;;;;;22.15;53.92;101368.09;4964589;28;20400;-41
2023/09/29 04:13:41;;;;;;;11.70;6.40;;;;;;;22.14;54.11;101359.16;4965466;28;20573;-38
2023/09/29 04:16:08;;;;;;;11.20;6.45;;;;;;;22.15;54.16;101360.00;4963942;28;20082;-37
2023/09/29 04:18:35;;;;;;;11.30;6.53;;;;;;;22.15;54.09;101349.19;4962586;28;20393;-41
2023/09/29 04:21:02;;;;;;;10.00;6.20;;;;;;;22.13;54.20;101352.06;4964967;28;20347;-40
2023/09/29 04:23:29;;;;;;;13.95;6.63;;;;;;;22.14;53.99;101350.22;4969609;28;20050;-37
2023/09/29 04:25:56;;;;;;;12.85;6.45;;;;;;;22.14;54.17;101351.06;4966014;28;20337;-40
2023/09/29 04:28:23;;;;;;;12.20;6.32;;;;;;;22.14;54.00;101351.06;4969701;28;20047;-40
2023/09/29 04:30:49;;;;;;;8.85;5.47;;;;;;;22.14;53.97;101348.34;4969693;28;20105;-40
2023/09/29 04:33:16;;;;;;;10.32;5.60;;;;;;;22.13;53.98;101343.97;4966103;28;20117;-37
2023/09/29 04:35:43;;;;;;;10.57;6.13;;;;;;;22.13;54.02;101343.13;4962375;28;20396;-41
2023/09/29 04:38:10;;;;;;;8.52;5.63;;;;;;;22.13;54.14;101348.53;4963092;28;20057;-41
2023/09/29 04:40:38;;;;;;;10.73;6.07;;;;;;;22.14;54.29;101352.91;4962991;28;20105;-38
2023/09/29 04:43:06;;;;;;;10.38;6.25;;;;;;;22.14;54.23;101345.66;4964547;28;20058;-39
2023/09/29 04:45:36;;;;;;;12.70;5.90;;;;;;;22.14;54.49;101347.53;4963314;28;20511;-40
2023/09/29 04:48:03;;;;;;;8.70;5.47;;;;;;;22.14;54.13;101347.53;4963116;28;20121;-39
2023/09/29 04:50:30;;;;;;;10.60;6.03;;;;;;;22.13;54.26;101352.06;4965766;28;20062;-38
2023/09/29 04:52:56;;;;;;;8.18;5.18;;;;;;;22.13;54.28;101349.38;4964746;28;20047;-40
2023/09/29 04:55:23;;;;;;;10.65;5.25;;;;;;;22.13;54.13;101349.38;4964658;28;20046;-40
2023/09/29 04:57:52;;;;;;;10.88;5.45;;;;;;;22.13;54.29;101338.56;4967394;28;20055;-41
2023/09/29 05:00:19;;;;;;;8.73;5.50;;;;;;;22.14;54.17;101339.41;4967346;28;20098;-41
2023/09/29 05:02:46;;;;;;;12.18;6.03;;;;;;;22.13;54.37;101327.78;4965768;28;20051;-40
2023/09/29 05:05:13;;;;;;;11.90;6.10;;;;;;;22.15;54.26;101335.69;4964980;28;20055;-40
2023/09/29 05:07:43;;;;;;;13.52;6.95;;;;;;;22.14;54.51;101326.75;4961513;28;20047;-40
2023/09/29 05:10:11;;;;;;;12.65;5.90;;;;;;;22.15;54.15;101322.19;4961033;28;20443;-38
2023/09/29 05:12:37;;;;;;;11.88;6.15;;;;;;;22.14;54.15;101321.34;4961813;28;20043;-39
2023/09/29 05:15:05;;;;;;;16.42;5.95;;;;;;;22.12;54.55;101331.47;4959357;28;20062;-41
2023/09/29 05:17:31;;;;;;;14.77;5.95;;;;;;;22.14;54.22;101337.56;4961506;28;20443;-41
2023/09/29 05:20:15;;;;;;;;;;;;;;;22.12;54.72;101328.78;4964718;28;20062;-38
2023/09/29 05:22:42;;;;;;;12.77;6.53;;;;;;;22.16;54.53;101326.59;4959973;28;19965;-41
2023/09/29 05:25:09;;;;;;;13.65;6.90;;;;;;;22.15;54.43;101333.88;4960386;28;20451;-40
2023/09/29 05:27:35;;;;;;;13.15;5.85;;;;;;;22.14;54.45;101328.63;4960663;28;20336;-41
2023/09/29 05:30:02;;;;;;;13.30;6.80;;;;;;;22.14;54.42;101329.47;4962464;28;20105;-38
2023/09/29 05:32:29;;;;;;;12.10;7.40;;;;;;;22.14;54.27;101324.06;4964379;28;20057;-42
2023/09/29 05:34:58;;;;;;;12.95;6.75;;;;;;;22.13;54.48;101330.47;4959545;28;20043;-41
2023/09/29 05:37:25;;;;;;;15.77;8.13;;;;;;;22.14;54.61;101334.84;4924021;29;20044;-42
2023/09/29 05:39:51;;;;;;;17.80;8.07;;;;;;;22.14;54.41;101339.41;4955204;28;20736;-41
2023/09/29 05:42:21;;;;;;;13.55;7.43;;;;;;;22.13;54.30;101338.56;4925722;29;20083;-38
2023/09/29 05:45:02;;;;;;;;;;;;;;;22.13;54.68;101343.13;4923857;29;20146;-38
2023/09/29 05:47:29;;;;;;;12.80;7.47;;;;;;;22.17;54.37;101339.09;4924173;29;20271;-41
2023/09/29 05:49:56;;;;;;;17.67;8.93;;;;;;;22.15;54.65;101344.66;4921693;29;20052;-40
2023/09/29 05:52:40;;;;;;;15.20;8.20;;;;;;;22.15;54.59;101351.91;4923318;29;20336;-40
2023/09/29 05:55:18;;;;;;;16.30;8.90;;;;;;;22.15;54.37;101344.66;4923951;29;20072;-38
2023/09/29 05:57:44;;;;;;;17.10;9.20;;;;;;;22.15;54.62;101343.78;4921769;28;20071;-39
2023/09/29 06:00:13;;;;;;;17.70;9.38;;;;;;;22.15;54.32;101347.38;4917785;29;20064;-41
2023/09/29 06:02:40;;;;;;;20.15;10.63;;;;;;;22.15;54.44;101341.09;4925789;29;20241;-41
2023/09/29 06:05:07;;;;;;;18.20;10.00;;;;;;;22.14;54.61;101345.66;4920726;29;20139;-40
2023/09/29 06:07:34;;;;;;;20.23;10.40;;;;;;;22.15;54.64;101344.66;4924767;29;20048;-41
2023/09/29 06:10:02;;;;;;;19.70;9.85;;;;;;;22.15;54.41;101349.19;4927102;29;20147;-41
2023/09/29 06:12:28;;;;;;;19.30;10.13;;;;;;;22.16;54.41;101346.34;4920104;29;20107;-38
2023/09/29 06:14:55;;;;;;;20.85;11.40;;;;;;;22.17;54.41;101342.63;4930812;28;20267;-39
2023/09/29 06:17:22;;;;;;;22.50;12.27;;;;;;;22.21;55.09;101345.00;4946474;28;20047;-38
2023/09/29 06:19:50;;;;;;;21.48;12.77;;;;;;;22.24;55.38;101352.78;4948601;28;20526;-38
2023/09/29 06:22:17;;;;;;;24.15;14.10;;;;;;;22.27;55.32;101355.09;4948499;28;20055;-41
2023/09/29 06:24:44;;;;;;;27.23;15.30;;;;;;;22.30;55.31;101360.19;4952521;28;20054;-39
2023/09/29 06:27:11;;;;;;;30.40;16.05;;;;;;;22.33;55.38;101357.16;4946749;28;20419;-41
2023/09/29 06:29:40;;;;;;;27.42;15.35;;;;;;;22.35;55.29;101357.81;4944551;28;20058;-41
2023/09/29 06:32:10;;;;;;;29.95;16.92;;;;;;;22.39;55.17;101361.84;4945448;28;20058;-42
2023/09/29 06:34:37;;;;;;;30.40;18.15;;;;;;;22.42;55.29;101358.81;4949527;28;20085;-41
2023/09/29 06:37:04;;;;;;;33.03;17.77;;;;;;;22.45;55.82;101354.94;4988442;28;20119;-42
2023/09/29 06:39:30;;;;;;;31.08;18.23;;;;;;;22.48;55.39;101357.31;4992428;28;20438;-36
2023/09/29 06:41:57;;;;;;;29.23;18.52;;;;;;;22.51;55.68;101354.25;4980836;28;20058;-37
2023/09/29 06:44:24;;;;;;;28.52;18.08;;;;;;;22.53;55.50;101361.19;4990809;28;20131;-35
2023/09/29 06:46:50;;;;;;;33.47;18.92;;;;;;;22.55;55.86;101358.28;4987636;28;20068;-35
2023/09/29 06:49:17;;;;;;;26.50;17.30;;;;;;;22.58;55.56;101368.75;4986675;28;20327;-36
2023/09/29 06:51:43;;;;;;;30.58;18.00;;;;;;;22.60;55.92;101366.75;4988545;28;20050;-38
2023/09/29 06:54:10;;;;;;;30.63;18.17;;;;;;;22.61;55.48;101363.03;4983399;28;20139;-35
2023/09/29 06:56:37;;;;;;;31.13;17.92;;;;;;;22.63;55.60;101361.84;5005444;28;20054;-38
2023/09/29 06:59:04;;;;;;;33.00;18.90;;;;;;;22.65;55.67;101358.97;4986964;28;20054;-36
2023/09/29 07:01:34;;;;;;;32.40;18.20;;;;;;;22.67;55.63;101362.31;4977422;28;20466;-39
2023/09/29 07:04:01;;;;;;;30.67;18.80;;;;;;;22.70;55.61;101361.16;4980441;28;20050;-39
2023/09/29 07:06:34;;;;;;;31.65;18.90;;;;;;;22.73;55.90;101371.63;4987305;28;20061;-39
2023/09/29 07:09:01;;;;;;;34.22;20.25;;;;;;;22.75;55.72;101370.41;5000287;28;20446;-39
2023/09/29 07:11:28;;;;;;;32.70;19.50;;;;;;;22.77;55.44;101379.22;5027249;28;20050;-39
2023/09/29 07:13:55;;;;;;;33.22;19.25;;;;;;;22.79;55.58;101374.47;4970686;28;20057;-41
2023/09/29 07:16:22;;;;;;;30.73;18.95;;;;;;;22.81;55.33;101379.72;5011187;28;20065;-40
2023/09/29 07:18:48;;;;;;;29.27;17.65;;;;;;;22.83;55.53;101373.09;4994960;28;20046;-39
2023/09/29 07:21:15;;;;;;;34.50;19.05;;;;;;;22.86;55.41;101375.47;4987412;28;20054;-36
2023/09/29 07:23:42;;;;;;;28.05;17.45;;;;;;;22.87;55.63;101385.28;4988507;28;20238;-36
2023/09/29 07:26:08;;;;;;;24.70;16.35;;;;;;;22.90;55.68;101381.38;4988535;28;20535;-37
2023/09/29 07:28:35;;;;;;;28.60;16.55;;;;;;;22.89;55.54;101388.63;4992151;28;20058;-37
2023/09/29 07:31:02;;;;;;;25.52;16.27;;;;;;;22.90;55.36;101387.66;4991049;28;20112;-37
2023/09/29 07:33:29;;;;;;;28.25;17.48;;;;;;;22.91;55.02;101388.50;4950315;28;20067;-37
2023/09/29 07:35:55;;;;;;;31.75;18.00;;;;;;;22.93;55.83;101394.59;4977630;28;20059;-39
2023/09/29 07:38:22;;;;;;;28.35;16.85;;;;;;;22.94;55.33;101395.41;4968914;28;20077;-38
2023/09/29 07:40:49;;;;;;;27.73;16.98;;;;;;;22.94;55.24;101395.41;4972685;28;20183;-37
2023/09/29 07:43:16;;;;;;;28.75;16.50;;;;;;;22.96;55.39;101393.41;4971304;28;20259;-37
2023/09/29 07:45:44;;;;;;;31.05;18.02;;;;;;;22.96;55.31;101399.66;4969621;28;20055;-37
2023/09/29 07:48:15;;;;;;;28.80;18.15;;;;;;;22.97;55.46;101395.91;4972891;28;20054;-37
2023/09/29 07:50:42;;;;;;;27.27;16.08;;;;;;;22.97;55.42;101387.81;4973405;28;20344;-36
2023/09/29 07:53:11;;;;;;;26.13;16.25;;;;;;;22.97;55.53;101395.91;4946957;28;20055;-36
2023/09/29 07:55:37;;;;;;;26.23;16.23;;;;;;;22.99;55.76;101401.16;5022344;28;20050;-36
2023/09/29 07:58:04;;;;;;;32.55;18.70;;;;;;;22.99;56.07;101393.88;4992160;28;20443;-37
2023/09/29 08:00:31;;;;;;;28.88;17.95;;;;;;;23.01;55.57;101393.72;4995596;28;20050;-36
2023/09/29 08:02:57;;;;;;;26.35;17.00;;;;;;;23.01;55.95;101397.25;4990950;28;20600;-36
2023/09/29 08:05:24;;;;;;;28.35;16.77;;;;;;;23.01;55.64;101402.66;4990219;28;20050;-36
2023/09/29 08:07:51;;;;;;;25.70;16.58;;;;;;;23.02;55.74;101392.69;4988223;28;20137;-37
2023/09/29 08:10:18;;;;;;;27.88;16.55;;;;;;;23.02;55.97;101398.94;4987293;28;20049;-36
2023/09/29 08:12:45;;;;;;;29.70;18.30;;;;;;;23.03;55.54;101402.47;4994830;28;20050;-36
2023/09/29 08:15:13;;;;;;;31.63;18.45;;;;;;;23.03;56.02;101406.03;4967556;28;20061;-37
2023/09/29 08:17:41;;;;;;;34.38;20.92;;;;;;;23.04;56.08;101407.75;4996108;28;20051;-37
2023/09/29 08:20:09;;;;;;;32.63;19.70;;;;;;;23.06;55.54;101402.97;4990276;28;20058;-38
2023/09/29 08:22:35;;;;;;;31.73;18.63;;;;;;;23.07;56.10;101407.38;4986174;28;20049;-43
2023/09/29 08:25:08;;;;;;;30.42;18.20;;;;;;;23.10;56.25;101407.03;4984605;28;20165;-36
2023/09/29 08:27:38;;;;;;;28.27;17.73;;;;;;;23.11;56.21;101414.13;4986695;28;20069;-42
2023/09/29 08:30:09;;;;;;;28.27;16.35;;;;;;;23.13;55.74;101404.00;4986014;28;20053;-37
2023/09/29 08:32:42;;;;;;;25.60;16.10;;;;;;;23.15;56.29;101414.63;4987439;28;20066;-41
2023/09/29 08:35:16;;;;;;;29.33;18.55;;;;;;;23.18;55.93;101422.38;4959840;28;20901;-41
2023/09/29 08:37:43;;;;;;;30.20;18.25;;;;;;;23.19;55.98;101426.78;4993533;28;20112;-40
2023/09/29 08:40:14;;;;;;;28.15;17.25;;;;;;;23.21;55.67;101429.31;4986090;28;20061;-43
2023/09/29 08:42:49;;;;;;;25.20;16.52;;;;;;;23.22;55.36;101426.44;4988155;28;20255;-41
2023/09/29 08:45:17;;;;;;;28.27;16.08;;;;;;;23.24;55.66;101429.81;4989593;28;20180;-36
2023/09/29 08:47:50;;;;;;;27.08;15.40;;;;;;;23.24;55.95;101421.72;4994206;28;20053;-38
2023/09/29 08:50:17;;;;;;;23.95;15.73;;;;;;;23.27;55.80;101428.63;4992915;28;20064;-35
2023/09/29 08:52:45;;;;;;;23.73;14.85;;;;;;;23.26;55.80;101430.47;4987031;28;20145;-40
2023/09/29 08:55:12;;;;;;;21.20;14.02;;;;;;;23.27;55.56;101431.31;4975469;28;20065;-39
2023/09/29 08:57:42;;;;;;;23.83;14.63;;;;;;;23.27;56.04;101431.31;4992588;28;20054;-36
2023/09/29 09:00:13;;;;;;;26.05;14.43;;;;;;;23.28;55.78;101435.72;4990433;28;20066;-38
2023/09/29 09:02:44;;;;;;;21.65;12.65;;;;;;;23.29;56.08;101437.41;4987136;28;20427;-36
2023/09/29 09:05:12;;;;;;;20.95;12.35;;;;;;;23.28;56.32;101441.97;4986650;28;20046;-35
2023/09/29 09:07:43;;;;;;;20.73;11.45;;;;;;;23.28;55.84;101436.56;4993043;28;20461;-37
2023/09/29 09:10:11;;;;;;;19.15;11.93;;;;;;;23.29;56.01;101442.81;4987095;28;20149;-36
2023/09/29 09:12:57;;;;;;;22.05;13.48;;;;;;;23.30;55.89;101448.03;4990694;28;20550;-39
2023/09/29 09:15:24;;;;;;;19.30;12.70;;;;;;;23.31;55.94;101438.06;4961007;28;20057;-36
2023/09/29 09:17:52;;;;;;;19.77;12.48;;;;;;;23.32;55.76;101450.59;4996692;28;20052;-36
2023/09/29 09:20:19;;;;;;;23.05;13.45;;;;;;;23.33;55.30;101445.00;4989772;28;20054;-37
2023/09/29 09:23:15;;;;;;;22.27;14.15;;;;;;;23.32;55.27;101431.66;4990698;28;20046;-35
2023/09/29 09:25:43;;;;;;;20.58;13.35;;;;;;;23.35;55.77;101436.69;4991167;28;20208;-41
2023/09/29 09:28:18;;;;;;;21.00;12.90;;;;;;;23.37;55.75;101450.91;4992625;28;20537;-37
2023/09/29 09:30:51;;;;;;;19.95;12.95;;;;;;;23.37;55.74;101440.09;4988727;28;20108;-35
2023/09/29 09:33:21;;;;;;;18.63;11.38;;;;;;;23.36;55.62;101441.97;4988304;28;20096;-36
2023/09/29 09:35:49;;;;;;;20.75;12.27;;;;;;;23.38;55.41;101439.06;4963279;28;20049;-36
2023/09/29 09:38:16;;;;;;;19.65;12.30;;;;;;;23.38;55.25;101442.59;4985185;28;20330;-36
2023/09/29 09:40:44;;;;;;;20.05;12.82;;;;;;;23.39;55.47;101451.56;4991968;28;20350;-35
2023/09/29 09:43:14;;;;;;;17.85;10.55;;;;;;;23.38;55.68;101450.72;4990139;28;20050;-36
2023/09/29 09:45:43;;;;;;;16.17;9.15;;;;;;;23.39;55.17;101455.09;4991235;28;20543;-35
2023/09/29 09:48:15;;;;;;;18.05;10.48;;;;;;;23.40;55.70;101461.38;4982136;28;20126;-36
2023/09/29 09:50:46;;;;;;;15.98;9.88;;;;;;;23.41;56.05;101460.38;4986693;28;20054;-38
2023/09/29 09:53:13;;;;;;;14.82;9.48;;;;;;;23.42;55.32;101469.31;4988549;28;20442;-38
2023/09/29 09:55:50;;;;;;;18.55;10.43;;;;;;;23.42;55.81;101485.56;4966162;28;20061;-36
2023/09/29 09:58:20;;;;;;;17.90;10.20;;;;;;;23.43;55.21;101485.38;4983992;28;20136;-36
2023/09/29 10:00:50;;;;;;;16.98;10.70;;;;;;;23.43;55.83;101485.38;4994330;28;20108;-37
2023/09/29 10:03:17;;;;;;;17.02;10.10;;;;;;;23.43;55.63;101479.97;4992796;28;20070;-38
2023/09/29 10:05:51;;;;;;;14.52;8.48;;;;;;;23.43;55.56;101482.66;4988676;28;20050;-36
2023/09/29 10:08:29;;;;;;;15.77;9.00;;;;;;;23.45;55.42;101490.63;4987758;28;20406;-37
2023/09/29 10:11:15;;;;;;;13.68;9.32;;;;;;;23.44;55.50;101487.06;4985112;28;20472;-36
2023/09/29 10:13:44;;;;;;;12.50;8.32;;;;;;;23.46;55.34;101485.03;4967362;28;20152;-36
2023/09/29 10:16:24;;;;;;;14.75;9.30;;;;;;;23.46;55.51;101492.31;5002151;28;20061;-36
2023/09/29 10:18:59;;;;;;;13.65;8.93;;;;;;;23.47;55.58;101500.22;4993088;28;20140;-37
2023/09/29 10:21:39;;;;;;;13.35;8.85;;;;;;;23.47;55.41;101497.53;4983981;28;20430;-36
2023/09/29 10:24:06;;;;;;;15.30;9.00;;;;;;;23.48;55.85;101501.94;4992358;28;20050;-37
2023/09/29 10:26:43;;;;;;;14.15;9.07;;;;;;;23.48;55.40;101499.25;4988907;28;20656;-36
2023/09/29 10:29:18;;;;;;;13.95;8.40;;;;;;;23.48;55.25;101501.94;4984952;28;20085;-36
2023/09/29 10:31:45;;;;;;;13.73;8.38;;;;;;;23.49;55.70;101500.91;4984915;28;20062;-36
2023/09/29 10:34:22;;;;;;;13.45;8.00;;;;;;;23.49;55.71;101509.03;4954580;28;20054;-37
2023/09/29 10:36:56;;;;;;;14.00;8.57;;;;;;;23.49;55.78;101503.63;4999518;28;20159;-37
2023/09/29 10:39:27;;;;;;;13.45;7.45;;;;;;;23.51;56.08;101511.56;4988061;28;20065;-37
2023/09/29 10:42:15;;;;;;;13.48;7.65;;;;;;;23.51;56.10;101516.97;4991163;28;20046;-36
2023/09/29 10:44:47;;;;;;;12.82;8.10;;;;;;;23.52;55.97;101518.69;5022306;28;20049;-37
2023/09/29 10:47:14;;;;;;;14.68;8.38;;;;;;;23.52;55.61;101524.09;4992610;28;20046;-36
2023/09/29 10:49:45;;;;;;;12.68;7.70;;;;;;;23.52;55.28;101534.91;4996379;28;20050;-36
2023/09/29 10:52:19;;;;;;;14.35;8.75;;;;;;;23.51;55.54;101550.28;4993090;28;20065;-36
2023/09/29 10:54:46;;;;;;;10.68;7.43;;;;;;;23.52;55.83;101557.41;4959777;28;20559;-37
2023/09/29 10:57:19;;;;;;;14.18;8.52;;;;;;;23.52;55.43;101552.00;4999792;28;20054;-36
2023/09/29 10:59:49;;;;;;;12.73;7.97;;;;;;;23.53;56.14;101566.38;4993064;28;20136;-37
2023/09/29 11:02:16;;;;;;;11.77;8.40;;;;;;;23.53;55.61;101556.38;4996488;28;20712;-37
2023/09/29 11:04:46;;;;;;;13.45;8.32;;;;;;;23.52;55.92;101568.22;4990491;28;20046;-39
2023/09/29 11:07:17;;;;;;;16.92;9.10;;;;;;;23.54;56.39;101582.41;4988208;28;20461;-41
2023/09/29 11:09:43;;;;;;;15.38;9.95;;;;;;;23.54;56.56;101587.00;4995415;28;20052;-41
2023/09/29 11:12:17;;;;;;;12.88;9.15;;;;;;;23.55;56.64;101586.81;4991754;28;20053;-41
2023/09/29 11:14:44;;;;;;;18.17;8.95;;;;;;;23.55;56.18;101589.50;4962559;28;20068;-36
2023/09/29 11:17:11;;;;;;;16.55;8.55;;;;;;;23.56;56.79;101604.75;4997920;28;20056;-36
2023/09/29 11:19:37;;;;;;;15.93;8.40;;;;;;;23.58;56.53;101607.28;5022344;28;20117;-37
2023/09/29 11:22:05;;;;;;;10.63;7.63;;;;;;;23.58;56.17;101604.56;4990723;28;20054;-39